createdAt,value
2023-05-16T00:00:46.516Z,82.67
2023-05-16T00:03:13.349Z,82.50
2023-05-16T00:05:40.260Z,81.81
2023-05-16T00:08:06.836Z,81.69
2023-05-16T00:10:38.201Z,81.38
2023-05-16T00:13:07.149Z,81.23
2023-05-16T00:15:34.026Z,81.32
2023-05-16T00:18:02.717Z,80.97
2023-05-16T00:20:30.456Z,81.03
2023-05-16T00:23:01.171Z,80.98
2023-05-16T00:25:28.761Z,81.23
2023-05-16T00:27:55.541Z,81.11
2023-05-16T00:30:22.830Z,81.11
2023-05-16T00:32:49.659Z,80.79
2023-05-16T00:35:16.332Z,81.10
2023-05-16T00:37:43.993Z,80.93
2023-05-16T00:40:11.023Z,80.97
2023-05-16T00:42:38.880Z,80.79
2023-05-16T00:45:06.935Z,81.34
2023-05-16T00:47:33.988Z,81.32
2023-05-16T00:50:02.773Z,81.32
2023-05-16T00:52:29.846Z,81.44
2023-05-16T00:54:57.567Z,81.45
2023-05-16T00:57:24.870Z,81.52
2023-05-16T00:59:52.144Z,81.68
2023-05-16T01:02:18.863Z,81.51
2023-05-16T01:04:48.394Z,81.69
2023-05-16T01:07:15.260Z,82.05
2023-05-16T01:09:41.927Z,81.90
2023-05-16T01:12:27.392Z,82.36
2023-05-16T01:15:10.612Z,82.44
2023-05-16T01:18:03.668Z,82.47
2023-05-16T01:20:42.838Z,82.67
2023-05-16T01:23:41.566Z,82.69
2023-05-16T01:26:18.995Z,82.87
2023-05-16T01:28:47.280Z,82.93
2023-05-16T01:31:14.280Z,82.91
2023-05-16T01:33:40.910Z,82.84
2023-05-16T01:36:22.641Z,83.02
2023-05-16T01:39:09.444Z,82.98
2023-05-16T01:42:06.199Z,82.79
2023-05-16T01:44:52.566Z,82.77
2023-05-16T01:48:02.866Z,82.75
2023-05-16T01:50:37.744Z,82.74
2023-05-16T01:53:11.415Z,82.49
2023-05-16T01:55:51.522Z,82.51
2023-05-16T01:58:26.320Z,82.22
2023-05-16T02:00:54.416Z,82.66
2023-05-16T02:03:23.860Z,82.67
2023-05-16T02:05:51.482Z,82.75
2023-05-16T02:08:18.244Z,82.46
2023-05-16T02:10:51.644Z,82.34
2023-05-16T02:13:18.515Z,82.35
2023-05-16T02:16:19.515Z,82.05
2023-05-16T02:18:46.780Z,81.84
2023-05-16T02:21:13.447Z,81.61
2023-05-16T02:23:40.063Z,81.80
2023-05-16T02:26:24.924Z,81.86
2023-05-16T02:28:51.535Z,81.53
2023-05-16T02:31:28.529Z,81.71
2023-05-16T02:33:55.326Z,81.50
2023-05-16T02:36:35.962Z,81.09
2023-05-16T02:39:06.378Z,81.55
2023-05-16T02:41:33.322Z,81.40
2023-05-16T02:43:59.910Z,81.62
2023-05-16T02:46:31.746Z,81.50
2023-05-16T02:48:58.539Z,81.61
2023-05-16T02:51:27.368Z,81.51
2023-05-16T02:53:57.074Z,81.51
2023-05-16T02:56:23.825Z,81.54
2023-05-16T02:58:50.665Z,81.46
2023-05-16T03:01:17.753Z,81.43
2023-05-16T03:03:44.668Z,81.69
2023-05-16T03:06:11.519Z,81.64
2023-05-16T03:08:38.329Z,81.58
2023-05-16T03:11:05.648Z,81.66
2023-05-16T03:13:33.390Z,81.54
2023-05-16T03:16:00.767Z,81.28
2023-05-16T03:18:31.937Z,81.69
2023-05-16T03:21:00.156Z,81.45
2023-05-16T03:23:27.343Z,81.20
2023-05-16T03:25:54.346Z,80.79
2023-05-16T03:28:25.354Z,80.46
2023-05-16T03:30:51.997Z,80.53
2023-05-16T03:33:19.219Z,80.33
2023-05-16T03:35:46.825Z,79.97
2023-05-16T03:38:16.040Z,80.18
2023-05-16T03:40:42.770Z,79.97
2023-05-16T03:43:22.289Z,79.84
2023-05-16T03:45:50.152Z,79.53
2023-05-16T03:48:16.881Z,78.93
2023-05-16T03:50:43.576Z,79.03
2023-05-16T03:53:10.497Z,78.91
2023-05-16T03:55:46.829Z,78.74
2023-05-16T03:58:16.524Z,78.80
2023-05-16T04:00:42.996Z,78.53
2023-05-16T04:03:28.550Z,77.73
2023-05-16T04:05:57.897Z,77.54
2023-05-16T04:08:26.570Z,77.40
2023-05-16T04:10:53.518Z,77.27
2023-05-16T04:13:20.303Z,76.86
2023-05-16T04:15:47.096Z,77.05
2023-05-16T04:18:13.980Z,77.30
2023-05-16T04:20:43.027Z,77.01
2023-05-16T04:23:12.043Z,76.86
2023-05-16T04:25:42.475Z,76.74
2023-05-16T04:28:09.338Z,76.85
2023-05-16T04:30:36.262Z,76.81
2023-05-16T04:33:05.556Z,76.82
2023-05-16T04:35:34.224Z,76.66
2023-05-16T04:38:01.160Z,76.90
2023-05-16T04:40:29.549Z,76.40
2023-05-16T04:42:56.188Z,76.47
2023-05-16T04:45:27.885Z,76.57
2023-05-16T04:47:55.000Z,76.39
2023-05-16T04:50:24.456Z,76.24
2023-05-16T04:52:51.272Z,75.84
2023-05-16T04:55:18.065Z,75.88
2023-05-16T04:57:44.772Z,75.64
2023-05-16T05:00:13.460Z,75.32
2023-05-16T05:02:44.854Z,74.76
2023-05-16T05:05:11.710Z,75.16
2023-05-16T05:07:39.497Z,74.92
2023-05-16T05:10:07.884Z,74.81
2023-05-16T05:12:36.150Z,74.43
2023-05-16T05:15:03.748Z,73.96
2023-05-16T05:17:30.852Z,73.60
2023-05-16T05:20:00.005Z,73.38
2023-05-16T05:22:29.241Z,73.19
2023-05-16T05:24:55.945Z,72.93
2023-05-16T05:27:22.560Z,73.06
2023-05-16T05:29:49.159Z,72.58
2023-05-16T05:32:15.928Z,73.06
2023-05-16T05:34:44.654Z,72.86
2023-05-16T05:37:12.286Z,73.16
2023-05-16T05:39:40.383Z,73.25
2023-05-16T05:42:09.117Z,73.25
2023-05-16T05:44:38.050Z,73.50
2023-05-16T05:47:07.067Z,73.69
2023-05-16T05:49:36.032Z,73.68
2023-05-16T05:52:02.816Z,73.68
2023-05-16T05:54:30.390Z,73.73
2023-05-16T05:56:59.409Z,74.07
2023-05-16T05:59:29.519Z,74.21
2023-05-16T06:01:58.064Z,73.69
2023-05-16T06:04:25.152Z,74.10
2023-05-16T06:06:54.377Z,74.34
2023-05-16T06:09:26.000Z,74.24
2023-05-16T06:11:52.615Z,74.20
2023-05-16T06:14:20.288Z,74.44
2023-05-16T06:16:47.017Z,74.56
2023-05-16T06:19:16.215Z,74.76
2023-05-16T06:21:43.687Z,74.49
2023-05-16T06:24:12.309Z,74.60
2023-05-16T06:26:39.581Z,74.69
2023-05-16T06:29:06.279Z,74.27
2023-05-16T06:31:33.198Z,74.51
2023-05-16T06:33:59.931Z,74.18
2023-05-16T06:36:28.815Z,73.97
2023-05-16T06:38:55.689Z,73.82
2023-05-16T06:41:22.264Z,73.79
2023-05-16T06:43:49.539Z,73.52
2023-05-16T06:46:16.354Z,73.58
2023-05-16T06:48:43.108Z,73.61
2023-05-16T06:51:12.936Z,73.48
2023-05-16T06:53:40.040Z,72.83
2023-05-16T06:56:07.242Z,72.76
2023-05-16T06:58:35.215Z,72.41
2023-05-16T07:01:01.873Z,72.05
2023-05-16T07:03:29.140Z,71.42
2023-05-16T07:05:57.297Z,70.61
2023-05-16T07:08:26.009Z,70.60
2023-05-16T07:10:53.750Z,70.47
2023-05-16T07:13:20.765Z,70.50
2023-05-16T07:15:47.486Z,70.62
2023-05-16T07:18:14.352Z,69.94
2023-05-16T07:20:42.087Z,69.37
2023-05-16T07:23:12.211Z,69.29
2023-05-16T07:25:39.382Z,68.93
2023-05-16T07:28:06.045Z,69.26
2023-05-16T07:30:32.780Z,69.15
2023-05-16T07:32:59.479Z,69.02
2023-05-16T07:35:26.433Z,69.07
2023-05-16T07:37:53.516Z,69.14
2023-05-16T07:40:25.813Z,69.10
2023-05-16T07:42:52.568Z,69.01
2023-05-16T07:45:19.516Z,69.08
2023-05-16T07:47:46.415Z,68.00
2023-05-16T07:50:13.300Z,67.69
2023-05-16T07:52:40.023Z,66.99
2023-05-16T07:55:07.511Z,66.79
2023-05-16T07:57:34.568Z,66.77
2023-05-16T08:00:01.598Z,67.01
2023-05-16T08:02:31.282Z,67.15
2023-05-16T08:04:58.322Z,67.03
2023-05-16T08:07:25.082Z,66.42
2023-05-16T08:09:51.787Z,66.06
2023-05-16T08:12:18.607Z,66.15
2023-05-16T08:14:45.267Z,65.61
2023-05-16T08:17:12.184Z,65.52
2023-05-16T08:19:40.126Z,64.71
2023-05-16T08:22:09.290Z,63.96
2023-05-16T08:24:36.326Z,63.60
2023-05-16T08:27:03.046Z,63.66
2023-05-16T08:29:30.299Z,62.21
2023-05-16T08:31:57.145Z,62.47
2023-05-16T08:34:24.254Z,61.04
2023-05-16T08:36:50.977Z,60.59
2023-05-16T08:39:18.844Z,60.17
2023-05-16T08:41:46.630Z,60.19
2023-05-16T08:44:20.429Z,58.58
2023-05-16T08:46:53.100Z,56.20
2023-05-16T08:49:21.072Z,53.54
2023-05-16T08:51:49.415Z,54.02
2023-05-16T08:54:16.967Z,54.42
2023-05-16T08:56:45.178Z,52.62
2023-05-16T08:59:15.118Z,52.81
2023-05-16T09:01:42.530Z,52.69
2023-05-16T09:04:12.584Z,51.99
2023-05-16T09:06:39.326Z,51.47
2023-05-16T09:09:08.343Z,52.88
2023-05-16T09:11:37.048Z,53.58
2023-05-16T09:14:05.889Z,53.11
2023-05-16T09:16:32.784Z,53.72
2023-05-16T09:19:02.137Z,52.32
2023-05-16T09:21:33.272Z,52.30
2023-05-16T09:24:09.622Z,51.08
2023-05-16T09:26:38.499Z,50.14
2023-05-16T09:29:12.561Z,50.87
2023-05-16T09:31:40.764Z,50.52
2023-05-16T09:34:12.280Z,49.40
2023-05-16T09:36:43.498Z,48.00
2023-05-16T09:39:11.354Z,48.56
2023-05-16T09:41:38.103Z,49.45
2023-05-16T09:44:06.517Z,50.01
2023-05-16T09:46:35.001Z,50.60
2023-05-16T09:49:02.325Z,50.65
2023-05-16T09:51:28.999Z,49.83
2023-05-16T09:53:58.848Z,49.54
2023-05-16T09:56:25.577Z,49.01
2023-05-16T09:58:52.689Z,47.30
2023-05-16T10:01:19.635Z,47.06
2023-05-16T10:03:46.698Z,46.39
2023-05-16T10:06:13.841Z,45.64
2023-05-16T10:08:43.313Z,47.77
2023-05-16T10:11:11.022Z,45.84
2023-05-16T10:13:39.267Z,46.42
2023-05-16T10:16:12.790Z,46.07
2023-05-16T10:18:41.736Z,46.37
2023-05-16T10:21:13.630Z,45.63
2023-05-16T10:23:47.581Z,45.34
2023-05-16T10:26:16.210Z,46.18
2023-05-16T10:28:43.006Z,47.49
2023-05-16T10:31:11.763Z,44.91
2023-05-16T10:33:39.838Z,44.75
2023-05-16T10:36:11.184Z,44.90
2023-05-16T10:38:39.266Z,44.51
2023-05-16T10:41:07.923Z,44.76
2023-05-16T10:43:34.628Z,45.55
2023-05-16T10:46:11.103Z,43.92
2023-05-16T10:48:41.996Z,45.46
2023-05-16T10:51:24.006Z,44.85
2023-05-16T10:53:55.428Z,44.23
2023-05-16T10:56:27.153Z,43.36
2023-05-16T10:58:54.818Z,42.51
2023-05-16T11:01:34.930Z,41.96
2023-05-16T11:04:06.659Z,42.28
2023-05-16T11:06:43.343Z,42.84
2023-05-16T11:09:15.783Z,43.41
2023-05-16T11:11:49.388Z,43.73
2023-05-16T11:14:26.364Z,42.80
2023-05-16T11:17:01.217Z,42.20
2023-05-16T11:19:43.082Z,39.48
2023-05-16T11:22:28.373Z,40.33
2023-05-16T11:25:04.385Z,41.42
2023-05-16T11:27:31.198Z,40.21
2023-05-16T11:30:13.717Z,41.26
2023-05-16T11:32:42.894Z,39.98
2023-05-16T11:35:14.990Z,40.26
2023-05-16T11:37:42.544Z,40.27
2023-05-16T11:40:12.590Z,40.42
2023-05-16T11:42:42.478Z,41.05
2023-05-16T11:45:15.848Z,41.92
2023-05-16T11:47:44.802Z,40.64
2023-05-16T11:50:14.203Z,39.37
2023-05-16T11:52:44.410Z,40.37
2023-05-16T11:55:11.533Z,39.43
2023-05-16T11:57:42.383Z,39.72
2023-05-16T12:00:21.321Z,39.72
2023-05-16T12:02:51.526Z,40.54
2023-05-16T12:05:20.797Z,38.19
2023-05-16T12:07:47.962Z,39.69
2023-05-16T12:10:16.145Z,41.56
2023-05-16T12:12:45.085Z,41.85
2023-05-16T12:15:12.568Z,40.92
2023-05-16T12:17:41.581Z,39.93
2023-05-16T12:20:16.771Z,38.70
2023-05-16T12:22:45.389Z,39.48
2023-05-16T12:25:28.462Z,38.67
2023-05-16T12:27:57.478Z,38.82
2023-05-16T12:30:25.674Z,38.88
2023-05-16T12:32:55.926Z,38.91
2023-05-16T12:35:23.204Z,39.97
2023-05-16T12:37:52.026Z,40.79
2023-05-16T12:40:20.654Z,40.89
2023-05-16T12:42:52.243Z,40.96
2023-05-16T12:45:19.065Z,40.83
2023-05-16T12:47:47.174Z,40.89
2023-05-16T12:50:17.480Z,41.54
2023-05-16T12:52:49.493Z,42.56
2023-05-16T12:55:20.635Z,42.53
2023-05-16T12:57:48.469Z,42.17
2023-05-16T13:00:18.807Z,42.60
2023-05-16T13:02:46.649Z,41.98
2023-05-16T13:05:13.620Z,42.23
2023-05-16T13:07:40.995Z,43.55
2023-05-16T13:10:10.818Z,43.96
2023-05-16T13:12:41.487Z,45.01
2023-05-16T13:15:10.782Z,46.16
2023-05-16T13:17:39.312Z,44.67
2023-05-16T13:20:10.467Z,44.88
2023-05-16T13:22:37.356Z,44.55
2023-05-16T13:25:04.824Z,44.66
2023-05-16T13:27:32.316Z,45.86
2023-05-16T13:29:59.632Z,47.06
2023-05-16T13:32:26.857Z,48.22
2023-05-16T13:34:54.585Z,48.54
2023-05-16T13:37:21.445Z,48.67
2023-05-16T13:39:48.164Z,49.33
2023-05-16T13:42:16.149Z,49.19
2023-05-16T13:44:43.395Z,49.07
2023-05-16T13:47:10.063Z,48.54
2023-05-16T13:49:37.855Z,46.51
2023-05-16T13:52:05.145Z,45.29
2023-05-16T13:54:32.135Z,46.04
2023-05-16T13:56:59.018Z,47.61
2023-05-16T13:59:44.904Z,49.12
2023-05-16T14:02:12.675Z,49.66
2023-05-16T14:04:40.073Z,49.33
2023-05-16T14:07:07.268Z,51.20
2023-05-16T14:09:35.293Z,48.58
2023-05-16T14:12:05.152Z,48.30
2023-05-16T14:14:32.077Z,48.73
2023-05-16T14:16:59.623Z,50.35
2023-05-16T14:19:26.494Z,48.64
2023-05-16T14:21:53.552Z,49.45
2023-05-16T14:24:20.268Z,48.95
2023-05-16T14:26:46.991Z,47.61
2023-05-16T14:29:13.723Z,47.52
2023-05-16T14:31:41.039Z,47.68
2023-05-16T14:34:08.164Z,49.87
2023-05-16T14:36:35.286Z,50.91
2023-05-16T14:39:02.376Z,52.27
2023-05-16T14:41:29.028Z,52.43
2023-05-16T14:43:56.216Z,52.80
2023-05-16T14:46:22.965Z,51.75
2023-05-16T14:48:51.161Z,50.81
2023-05-16T14:51:18.010Z,50.08
2023-05-16T14:53:46.967Z,50.66
2023-05-16T14:56:13.992Z,50.79
2023-05-16T14:58:40.743Z,50.17
2023-05-16T15:01:08.447Z,50.75
2023-05-16T15:03:53.840Z,52.10
2023-05-16T15:06:22.502Z,52.33
2023-05-16T15:08:50.865Z,53.76
2023-05-16T15:11:17.785Z,53.20
2023-05-16T15:13:44.495Z,53.08
2023-05-16T15:16:11.428Z,52.11
2023-05-16T15:18:38.309Z,52.04
2023-05-16T15:21:05.028Z,53.98
2023-05-16T15:23:31.886Z,54.47
2023-05-16T15:25:58.603Z,54.85
2023-05-16T15:28:25.496Z,54.18
2023-05-16T15:30:52.348Z,55.48
2023-05-16T15:33:19.019Z,56.67
2023-05-16T15:35:46.239Z,57.83
2023-05-16T15:38:12.985Z,58.41
2023-05-16T15:40:39.688Z,59.69
2023-05-16T15:43:06.535Z,61.03
2023-05-16T15:45:33.862Z,61.10
2023-05-16T15:48:00.928Z,59.04
2023-05-16T15:50:27.709Z,58.88
2023-05-16T15:52:54.410Z,57.69
2023-05-16T15:55:22.071Z,55.50
2023-05-16T15:57:48.780Z,55.17
2023-05-16T16:00:16.063Z,55.67
2023-05-16T16:02:45.166Z,56.44
2023-05-16T16:05:14.005Z,57.00
2023-05-16T16:07:40.717Z,57.45
2023-05-16T16:10:08.214Z,57.06
2023-05-16T16:12:35.203Z,56.85
2023-05-16T16:15:02.558Z,55.55
2023-05-16T16:17:29.417Z,55.21
2023-05-16T16:19:57.103Z,54.29
2023-05-16T16:22:23.902Z,53.42
2023-05-16T16:24:50.719Z,53.26
2023-05-16T16:27:17.433Z,54.00
2023-05-16T16:29:44.128Z,53.19
2023-05-16T16:32:10.949Z,53.20
2023-05-16T16:34:39.858Z,51.94
2023-05-16T16:37:10.481Z,52.19
2023-05-16T16:39:37.371Z,52.68
2023-05-16T16:42:04.265Z,53.25
2023-05-16T16:44:31.104Z,53.82
2023-05-16T16:46:57.840Z,54.08
2023-05-16T16:49:24.841Z,53.75
2023-05-16T16:51:51.929Z,54.68
2023-05-16T16:54:18.967Z,55.60
2023-05-16T16:56:47.586Z,56.76
2023-05-16T16:59:14.610Z,58.29
2023-05-16T17:01:41.759Z,59.83
2023-05-16T17:04:09.039Z,61.43
2023-05-16T17:06:36.112Z,62.73
2023-05-16T17:09:05.199Z,64.53
2023-05-16T17:11:36.034Z,65.20
2023-05-16T17:14:05.886Z,65.90
2023-05-16T17:16:34.062Z,66.56
2023-05-16T17:19:01.697Z,67.12
2023-05-16T17:21:29.577Z,66.65
2023-05-16T17:23:58.295Z,66.33
2023-05-16T17:26:25.203Z,66.10
2023-05-16T17:28:53.333Z,65.95
2023-05-16T17:31:20.446Z,66.70
2023-05-16T17:33:47.158Z,66.96
2023-05-16T17:36:14.163Z,67.78
2023-05-16T17:38:41.237Z,67.59
2023-05-16T17:41:08.608Z,67.94
2023-05-16T17:43:35.527Z,67.77
2023-05-16T17:46:02.378Z,67.52
2023-05-16T17:48:30.700Z,68.05
2023-05-16T17:50:57.570Z,67.52
2023-05-16T17:53:25.204Z,68.53
2023-05-16T17:55:52.112Z,68.60
2023-05-16T17:58:19.004Z,68.28
2023-05-16T18:00:49.067Z,67.90
2023-05-16T18:03:15.983Z,67.97
2023-05-16T18:08:12.962Z,68.05
2023-05-16T18:10:50.532Z,67.92
2023-05-16T18:13:18.789Z,67.73
2023-05-16T18:15:45.860Z,68.04
2023-05-16T18:18:12.961Z,68.48
2023-05-16T18:20:40.891Z,67.88
2023-05-16T18:23:10.647Z,68.65
2023-05-16T18:25:38.755Z,68.78
2023-05-16T18:28:05.757Z,70.04
2023-05-16T18:30:32.888Z,70.49
2023-05-16T18:33:00.097Z,70.94
2023-05-16T18:35:28.691Z,72.03
2023-05-16T18:37:55.891Z,72.71
2023-05-16T18:40:22.928Z,73.03
2023-05-16T18:42:49.886Z,73.16
2023-05-16T18:45:17.056Z,73.09
2023-05-16T18:47:44.395Z,74.13
2023-05-16T18:50:11.735Z,73.53
2023-05-16T18:52:40.660Z,73.93
2023-05-16T18:55:09.652Z,74.12
2023-05-16T18:57:36.563Z,74.03
2023-05-16T19:00:04.470Z,73.57
2023-05-16T19:02:41.423Z,73.97
2023-05-16T19:05:10.519Z,73.97
2023-05-16T19:07:38.717Z,74.40
2023-05-16T19:10:06.390Z,74.11
2023-05-16T19:12:33.490Z,73.89
2023-05-16T19:15:00.625Z,73.99
2023-05-16T19:17:27.499Z,74.59
2023-05-16T19:19:54.261Z,75.02
2023-05-16T19:22:21.083Z,74.82
2023-05-16T19:24:48.051Z,75.29
2023-05-16T19:27:14.883Z,75.62
2023-05-16T19:29:41.798Z,75.96
2023-05-16T19:32:08.702Z,76.65
2023-05-16T19:34:35.826Z,76.45
2023-05-16T19:37:03.545Z,76.67
2023-05-16T19:39:32.222Z,77.26
2023-05-16T19:42:07.069Z,77.77
2023-05-16T19:44:35.114Z,77.61
2023-05-16T19:47:02.265Z,78.20
2023-05-16T19:49:31.793Z,77.70
2023-05-16T19:51:59.506Z,77.83
2023-05-16T19:54:26.408Z,78.60
2023-05-16T19:56:54.144Z,78.33
2023-05-16T19:59:22.595Z,78.69
2023-05-16T20:01:49.177Z,78.63
2023-05-16T20:04:16.099Z,78.88
2023-05-16T20:06:42.820Z,79.33
2023-05-16T20:09:11.290Z,80.03
2023-05-16T20:11:40.051Z,80.05
2023-05-16T20:14:06.701Z,79.98
2023-05-16T20:16:33.415Z,80.71
2023-05-16T20:19:00.325Z,80.82
2023-05-16T20:21:27.044Z,81.30
2023-05-16T20:23:54.697Z,81.56
2023-05-16T20:26:21.524Z,81.79
2023-05-16T20:28:48.158Z,81.42
2023-05-16T20:31:14.901Z,81.83
2023-05-16T20:33:41.596Z,81.77
2023-05-16T20:36:09.535Z,81.53
2023-05-16T20:38:36.244Z,81.35
2023-05-16T20:41:04.681Z,81.73
2023-05-16T20:43:31.374Z,81.79
2023-05-16T20:45:58.452Z,81.41
2023-05-16T20:48:25.331Z,81.40
2023-05-16T20:50:52.203Z,80.97
2023-05-16T20:53:18.938Z,81.03
2023-05-16T20:55:46.021Z,80.76
2023-05-16T20:58:12.728Z,80.31
2023-05-16T21:00:45.619Z,80.66
2023-05-16T21:03:12.598Z,80.36
2023-05-16T21:05:42.284Z,80.11
2023-05-16T21:08:11.764Z,79.66
2023-05-16T21:10:48.076Z,78.96
2023-05-16T21:13:14.968Z,78.92
2023-05-16T21:15:42.786Z,78.75
2023-05-16T21:18:10.496Z,78.81
2023-05-16T21:20:37.251Z,78.70
2023-05-16T21:23:04.929Z,78.63
2023-05-16T21:25:36.352Z,78.45
2023-05-16T21:28:03.718Z,78.61
2023-05-16T21:30:31.618Z,77.94
2023-05-16T21:32:58.395Z,77.65
2023-05-16T21:35:25.404Z,77.29
2023-05-16T21:37:52.125Z,76.88
2023-05-16T21:40:24.836Z,76.86
2023-05-16T21:42:54.994Z,76.31
2023-05-16T21:45:23.506Z,76.24
2023-05-16T21:47:58.779Z,76.06
2023-05-16T21:50:25.642Z,75.98
2023-05-16T21:52:52.325Z,76.05
2023-05-16T21:55:18.972Z,76.29
2023-05-16T21:57:45.627Z,76.54
2023-05-16T22:00:12.990Z,76.63
2023-05-16T22:02:39.829Z,76.65
2023-05-16T22:05:07.605Z,77.04
2023-05-16T22:07:35.318Z,77.46
2023-05-16T22:10:03.160Z,77.16
2023-05-16T22:12:30.006Z,77.47
2023-05-16T22:14:57.366Z,77.55
2023-05-16T22:17:24.057Z,77.70
2023-05-16T22:19:50.834Z,77.79
2023-05-16T22:22:17.729Z,77.93
2023-05-16T22:24:44.466Z,77.82
2023-05-16T22:27:12.817Z,77.92
2023-05-16T22:29:41.642Z,77.98
2023-05-16T22:32:12.462Z,78.25
2023-05-16T22:34:39.817Z,77.76
2023-05-16T22:37:08.124Z,77.90
2023-05-16T22:39:35.156Z,77.92
2023-05-16T22:42:02.059Z,78.06
2023-05-16T22:44:31.323Z,78.16
2023-05-16T22:46:59.195Z,78.30
2023-05-16T22:49:25.881Z,78.42
2023-05-16T22:51:52.721Z,78.44
2023-05-16T22:54:20.389Z,79.01
2023-05-16T22:56:47.240Z,78.65
2023-05-16T22:59:14.840Z,79.09
2023-05-16T23:01:41.514Z,79.16
2023-05-16T23:04:08.579Z,79.45
2023-05-16T23:06:36.643Z,79.17
2023-05-16T23:09:04.763Z,79.50
2023-05-16T23:11:32.256Z,79.59
2023-05-16T23:13:58.903Z,79.59
2023-05-16T23:16:25.880Z,79.51
2023-05-16T23:18:52.826Z,79.52
2023-05-16T23:21:19.560Z,79.51
2023-05-16T23:23:47.305Z,79.63
2023-05-16T23:26:14.892Z,79.41
2023-05-16T23:28:41.576Z,79.38
2023-05-16T23:31:08.373Z,79.28
2023-05-16T23:33:35.076Z,79.57
2023-05-16T23:36:06.387Z,79.55
2023-05-16T23:38:33.059Z,79.63
2023-05-16T23:40:59.705Z,80.17
2023-05-16T23:43:26.759Z,80.26
2023-05-16T23:45:53.397Z,80.37
2023-05-16T23:48:20.114Z,80.39
2023-05-16T23:50:46.953Z,80.30
2023-05-16T23:53:13.849Z,80.03
2023-05-16T23:55:40.498Z,80.25
2023-05-16T23:58:07.461Z,79.76
